Time;durP1;ratioP1;P1;durP2;ratioP2;P2;SDS_P1;SDS_P2;PMS_P1;PMS_P2;Temp;Humidity;BMP_temperature;BMP_pressure;BME280_temperature;BME280_humidity;BME280_pressure;Samples;Min_cycle;Max_cycle;Signal;HPM_P1;HPM_P2
2023/11/13 00:01:12;;;;;;;11.20;3.08;;;17.70;58.30;;;;;;5052472;28;20215;-53
2023/11/13 00:03:38;;;;;;;8.57;2.63;;;17.70;58.30;;;;;;5052391;28;20227;-53
2023/11/13 00:06:06;;;;;;;9.50;3.03;;;17.70;58.30;;;;;;5052052;28;20695;-57
2023/11/13 00:08:33;;;;;;;8.75;2.95;;;17.60;58.20;;;;;;5052361;28;20200;-56
2023/11/13 00:11:03;;;;;;;8.43;2.25;;;17.60;58.20;;;;;;5052306;28;20222;-53
2023/11/13 00:13:30;;;;;;;10.63;2.60;;;17.60;58.20;;;;;;5052031;28;20192;-54
2023/11/13 00:15:58;;;;;;;8.95;2.63;;;17.70;58.30;;;;;;5052198;28;20739;-53
2023/11/13 00:18:25;;;;;;;6.65;2.10;;;17.60;58.20;;;;;;5052262;28;20578;-59
2023/11/13 00:20:53;;;;;;;8.10;2.40;;;17.60;58.20;;;;;;5051824;28;20231;-55
2023/11/13 00:23:19;;;;;;;8.07;2.10;;;17.60;58.20;;;;;;5051909;28;20196;-57
2023/11/13 00:25:46;;;;;;;8.63;2.47;;;17.60;58.20;;;;;;5052432;28;20307;-57
2023/11/13 00:28:15;;;;;;;5.40;2.10;;;17.70;58.30;;;;;;5051518;28;20683;-58
2023/11/13 00:30:42;;;;;;;7.45;1.95;;;17.60;58.20;;;;;;5052361;28;20241;-52
2023/11/13 00:33:09;;;;;;;5.65;2.22;;;17.60;58.20;;;;;;5051853;28;20543;-53
2023/11/13 00:35:36;;;;;;;7.03;2.25;;;17.60;58.20;;;;;;5051963;28;20216;-55
2023/11/13 00:38:03;;;;;;;6.80;2.00;;;17.60;58.30;;;;;;5051726;28;20561;-57
2023/11/13 00:40:34;;;;;;;5.55;1.90;;;17.60;58.20;;;;;;5052177;28;20272;-56
2023/11/13 00:43:01;;;;;;;9.38;2.40;;;17.60;58.30;;;;;;5051654;28;20696;-55
2023/11/13 00:45:29;;;;;;;6.97;2.30;;;17.60;58.30;;;;;;5052207;28;20306;-55
2023/11/13 00:47:56;;;;;;;5.82;2.40;;;17.60;58.30;;;;;;5051996;28;20202;-57
2023/11/13 00:50:23;;;;;;;8.45;2.53;;;17.60;58.30;;;;;;5051467;28;20222;-54
2023/11/13 00:52:50;;;;;;;6.72;2.00;;;17.60;58.30;;;;;;5051671;28;20187;-56
2023/11/13 00:55:17;;;;;;;6.90;2.22;;;17.60;58.30;;;;;;5051954;28;20330;-54
2023/11/13 00:57:43;;;;;;;8.75;2.40;;;17.60;58.40;;;;;;5051541;28;20187;-55
2023/11/13 01:00:13;;;;;;;8.57;2.40;;;17.60;58.50;;;;;;5052003;28;20241;-56
2023/11/13 01:02:41;;;;;;;5.65;2.20;;;17.60;58.60;;;;;;5051869;28;20250;-56
2023/11/13 01:05:09;;;;;;;6.18;1.92;;;17.60;58.50;;;;;;5051114;28;20612;-54
2023/11/13 01:07:36;;;;;;;6.43;2.20;;;17.60;58.60;;;;;;5051604;28;20573;-53
2023/11/13 01:10:04;;;;;;;6.30;2.05;;;17.60;58.60;;;;;;5051900;28;20298;-58
2023/11/13 01:12:31;;;;;;;7.13;2.30;;;17.60;58.60;;;;;;5051407;28;20218;-56
2023/11/13 01:14:58;;;;;;;7.03;2.40;;;17.60;58.70;;;;;;5051529;28;20247;-58
2023/11/13 01:17:25;;;;;;;7.95;2.38;;;17.60;58.70;;;;;;5051366;28;20227;-53
2023/11/13 01:19:53;;;;;;;6.82;2.30;;;17.60;58.70;;;;;;5050938;28;20281;-54
2023/11/13 01:22:20;;;;;;;5.60;2.38;;;17.60;58.80;;;;;;5051684;28;20222;-56
2023/11/13 01:24:47;;;;;;;7.15;2.00;;;17.60;58.80;;;;;;5051425;28;20247;-54
2023/11/13 01:27:14;;;;;;;8.05;2.33;;;17.60;58.80;;;;;;5051252;28;20215;-54
2023/11/13 01:29:41;;;;;;;8.13;2.47;;;17.60;58.90;;;;;;5051733;28;20235;-57
2023/11/13 01:32:08;;;;;;;8.45;2.33;;;17.60;58.90;;;;;;5051623;28;20184;-54
2023/11/13 01:34:36;;;;;;;8.02;2.40;;;17.60;59.00;;;;;;5051473;28;20265;-58
2023/11/13 01:37:04;;;;;;;11.20;2.60;;;17.60;58.90;;;;;;5055164;28;20210;-56
2023/11/13 01:39:31;;;;;;;6.35;2.17;;;17.60;59.00;;;;;;5054973;28;20314;-56
2023/11/13 01:41:59;;;;;;;6.85;2.30;;;17.60;59.10;;;;;;5054407;28;20875;-58
2023/11/13 01:44:26;;;;;;;7.40;2.47;;;17.60;59.00;;;;;;5054967;28;20223;-56
2023/11/13 01:46:53;;;;;;;6.85;2.40;;;17.60;59.00;;;;;;5054677;28;20286;-56
2023/11/13 01:49:21;;;;;;;7.60;2.63;;;17.60;59.10;;;;;;5054535;28;20220;-57
2023/11/13 01:51:50;;;;;;;8.30;2.40;;;17.60;59.10;;;;;;5054507;28;20560;-56
2023/11/13 01:54:21;;;;;;;6.32;2.25;;;17.60;59.10;;;;;;5054740;28;20219;-54
2023/11/13 01:56:48;;;;;;;7.38;2.20;;;17.60;59.20;;;;;;5054122;28;20192;-58
2023/11/13 01:59:16;;;;;;;7.10;1.98;;;17.60;59.20;;;;;;5054599;28;20654;-57
2023/11/13 02:01:43;;;;;;;8.50;2.42;;;17.60;59.20;;;;;;5054325;28;20275;-55
2023/11/13 02:04:10;;;;;;;9.60;2.38;;;17.60;59.20;;;;;;5053957;28;20357;-56
2023/11/13 02:06:38;;;;;;;7.32;2.45;;;17.60;59.30;;;;;;5054840;28;20230;-58
2023/11/13 02:09:09;;;;;;;9.90;2.53;;;17.60;59.40;;;;;;5054143;28;20224;-54
2023/11/13 02:11:38;;;;;;;7.88;2.47;;;17.60;59.40;;;;;;5053915;28;20199;-55
2023/11/13 02:14:05;;;;;;;9.07;2.40;;;17.60;59.30;;;;;;5054406;28;20275;-56
2023/11/13 02:16:33;;;;;;;6.45;2.10;;;17.60;59.40;;;;;;5054120;28;20188;-57
2023/11/13 02:19:00;;;;;;;8.02;2.65;;;17.60;59.40;;;;;;5053905;28;20662;-57
2023/11/13 02:21:27;;;;;;;9.70;2.42;;;17.60;59.40;;;;;;5052452;28;20223;-57
2023/11/13 02:23:56;;;;;;;9.68;2.28;;;17.60;59.40;;;;;;5054045;28;20238;-54
2023/11/13 02:26:24;;;;;;;6.80;2.20;;;17.60;59.50;;;;;;5053705;28;20188;-56
2023/11/13 02:28:51;;;;;;;7.97;2.83;;;17.60;59.50;;;;;;5054020;28;20198;-55
2023/11/13 02:31:18;;;;;;;8.23;2.28;;;17.60;59.50;;;;;;5054139;28;20191;-55
2023/11/13 02:33:45;;;;;;;9.88;2.50;;;17.60;59.50;;;;;;5053741;28;20195;-54
2023/11/13 02:36:12;;;;;;;11.38;2.58;;;17.60;60.40;;;;;;5054208;28;20222;-57
2023/11/13 02:38:39;;;;;;;8.85;2.55;;;17.60;59.70;;;;;;5053618;28;20566;-53
2023/11/13 02:41:08;;;;;;;9.35;2.33;;;17.60;59.70;;;;;;5053662;28;20271;-57
2023/11/13 02:43:35;;;;;;;8.32;3.00;;;17.60;59.70;;;;;;5053832;28;20195;-56
2023/11/13 02:46:02;;;;;;;10.93;3.25;;;17.60;59.70;;;;;;5053675;28;20302;-55
2023/11/13 02:48:29;;;;;;;7.25;2.38;;;17.60;59.70;;;;;;5053098;28;20729;-57
2023/11/13 02:50:56;;;;;;;7.95;2.35;;;17.60;59.70;;;;;;5053721;28;20242;-57
2023/11/13 02:53:23;;;;;;;7.00;2.50;;;17.60;59.70;;;;;;5053780;28;20226;-55
2023/11/13 02:55:51;;;;;;;8.43;2.55;;;17.60;59.70;;;;;;5053367;28;20216;-55
2023/11/13 02:58:19;;;;;;;12.43;2.85;;;17.60;59.70;;;;;;5053592;28;20605;-55
2023/11/13 03:00:46;;;;;;;8.45;2.40;;;17.70;59.80;;;;;;5053618;28;20235;-56
2023/11/13 03:03:13;;;;;;;9.95;3.05;;;17.60;59.70;;;;;;5052944;28;20270;-53
2023/11/13 03:05:39;;;;;;;9.82;2.85;;;17.60;59.70;;;;;;5053666;28;20212;-56
2023/11/13 03:08:06;;;;;;;8.32;2.85;;;17.60;59.70;;;;;;5053459;28;20715;-55
2023/11/13 03:10:33;;;;;;;10.10;2.75;;;17.70;59.80;;;;;;5052830;28;20565;-55
2023/11/13 03:13:00;;;;;;;8.18;2.30;;;17.60;59.70;;;;;;5053400;28;20215;-54
2023/11/13 03:15:28;;;;;;;7.25;2.53;;;17.60;59.70;;;;;;5053267;28;20251;-57
2023/11/13 03:17:55;;;;;;;10.90;2.35;;;17.60;60.50;;;;;;5052833;28;20183;-54
2023/11/13 03:20:23;;;;;;;8.88;3.10;;;17.60;59.90;;;;;;5052730;28;20693;-52
2023/11/13 03:22:49;;;;;;;9.90;3.25;;;17.60;59.90;;;;;;5053168;28;20187;-54
2023/11/13 03:25:18;;;;;;;8.55;2.80;;;17.60;60.70;;;;;;5052626;28;20611;-53
2023/11/13 03:27:45;;;;;;;7.40;2.63;;;17.60;59.90;;;;;;5052952;28;20203;-54
2023/11/13 03:30:13;;;;;;;11.02;2.90;;;17.60;60.00;;;;;;5053103;28;20307;-53
2023/11/13 03:32:43;;;;;;;11.25;2.75;;;17.70;60.10;;;;;;5052367;28;20661;-56
2023/11/13 03:35:11;;;;;;;9.57;2.85;;;17.60;60.10;;;;;;5053047;28;20215;-55
2023/11/13 03:37:38;;;;;;;11.57;2.75;;;17.60;60.10;;;;;;5053111;28;20235;-57
2023/11/13 03:40:07;;;;;;;12.30;2.92;;;17.60;60.10;;;;;;5052587;28;20235;-55
2023/11/13 03:42:35;;;;;;;13.60;3.40;;;17.60;60.20;;;;;;5052505;28;20697;-55
2023/11/13 03:45:02;;;;;;;10.75;3.00;;;17.60;60.20;;;;;;5052807;28;20215;-56
2023/11/13 03:47:29;;;;;;;11.15;3.08;;;17.60;60.20;;;;;;5052377;28;20184;-56
2023/11/13 03:49:57;;;;;;;12.93;3.28;;;17.60;60.20;;;;;;5052794;28;20216;-52
2023/11/13 03:52:24;;;;;;;13.07;3.00;;;17.60;60.30;;;;;;5052651;28;20184;-55
2023/11/13 03:54:51;;;;;;;12.30;2.97;;;17.60;60.30;;;;;;5052095;28;20589;-53
2023/11/13 03:57:18;;;;;;;11.77;2.72;;;17.60;60.30;;;;;;5051840;28;20188;-58
2023/11/13 03:59:45;;;;;;;9.10;2.53;;;17.60;60.40;;;;;;5052608;28;20219;-54
2023/11/13 04:02:11;;;;;;;9.00;2.72;;;17.60;60.30;;;;;;5052330;28;20219;-54
2023/11/13 04:04:38;;;;;;;10.55;3.00;;;17.60;60.40;;;;;;5051894;28;20239;-56
2023/11/13 04:07:07;;;;;;;9.18;2.78;;;17.60;60.40;;;;;;5052261;28;20199;-58
2023/11/13 04:09:35;;;;;;;9.50;3.08;;;17.60;60.40;;;;;;5052122;28;20757;-55
2023/11/13 04:12:02;;;;;;;9.98;3.13;;;17.60;60.40;;;;;;5052148;28;20199;-55
2023/11/13 04:14:29;;;;;;;9.65;2.92;;;17.60;60.40;;;;;;5052366;28;20318;-55
2023/11/13 04:16:56;;;;;;;12.35;3.05;;;17.60;60.40;;;;;;5052265;28;20220;-58
2023/11/13 04:19:23;;;;;;;10.27;3.08;;;17.60;60.40;;;;;;5051946;28;20215;-53
2023/11/13 04:21:50;;;;;;;10.15;2.90;;;17.60;60.50;;;;;;5052135;28;20310;-57
2023/11/13 04:24:19;;;;;;;9.77;2.90;;;17.60;60.50;;;;;;5052163;28;20192;-55
2023/11/13 04:26:46;;;;;;;13.07;3.13;;;17.60;60.50;;;;;;5051882;28;20188;-53
2023/11/13 04:29:12;;;;;;;10.32;2.78;;;17.60;60.60;;;;;;5052101;28;20206;-53
2023/11/13 04:31:39;;;;;;;12.05;3.03;;;17.60;60.50;;;;;;5052145;28;20194;-56
2023/11/13 04:34:06;;;;;;;9.10;2.88;;;17.60;60.60;;;;;;5051397;28;20789;-61
2023/11/13 04:36:34;;;;;;;10.00;2.97;;;17.60;60.60;;;;;;5052115;28;20286;-60
2023/11/13 04:39:01;;;;;;;11.77;3.00;;;17.60;60.60;;;;;;5052061;28;20191;-56
2023/11/13 04:41:29;;;;;;;9.68;3.17;;;17.60;60.60;;;;;;5051852;28;20322;-55
2023/11/13 04:43:56;;;;;;;9.63;2.75;;;17.60;60.60;;;;;;5052086;28;20187;-54
2023/11/13 04:46:22;;;;;;;11.63;2.72;;;17.60;60.70;;;;;;5051904;28;20212;-59
2023/11/13 04:48:49;;;;;;;9.95;3.00;;;17.60;60.70;;;;;;5051346;28;20187;-58
2023/11/13 04:51:16;;;;;;;9.50;2.90;;;17.60;60.70;;;;;;5051922;28;20211;-60
2023/11/13 04:53:43;;;;;;;7.43;2.45;;;17.60;60.70;;;;;;5051766;28;20187;-54
2023/11/13 04:56:11;;;;;;;9.93;2.95;;;17.60;60.70;;;;;;5051583;28;20276;-57
2023/11/13 04:58:40;;;;;;;10.30;2.65;;;17.60;60.80;;;;;;5051586;28;20571;-58
2023/11/13 05:01:07;;;;;;;9.23;2.60;;;17.60;60.80;;;;;;5051727;28;20735;-58
2023/11/13 05:03:35;;;;;;;10.65;2.85;;;17.60;60.90;;;;;;5051343;28;20322;-58
2023/11/13 05:06:03;;;;;;;10.43;2.75;;;17.60;60.90;;;;;;5051758;28;20302;-54
2023/11/13 05:08:30;;;;;;;8.98;2.80;;;17.60;61.00;;;;;;5052235;28;20200;-57
2023/11/13 05:10:57;;;;;;;9.93;2.85;;;17.60;60.90;;;;;;5055436;28;20302;-54
2023/11/13 05:13:24;;;;;;;10.50;2.97;;;17.60;61.10;;;;;;5055616;28;20601;-57
2023/11/13 05:15:53;;;;;;;10.63;2.60;;;17.60;61.10;;;;;;5055375;28;20218;-57
2023/11/13 05:18:20;;;;;;;13.07;3.60;;;17.60;61.10;;;;;;5055130;28;20203;-58
2023/11/13 05:20:47;;;;;;;13.10;3.00;;;17.60;61.10;;;;;;5055559;28;20284;-55
2023/11/13 05:23:14;;;;;;;12.63;2.67;;;17.60;61.20;;;;;;5055440;28;20282;-56
2023/11/13 05:25:43;;;;;;;13.07;3.30;;;17.60;61.20;;;;;;5054993;28;20211;-55
2023/11/13 05:28:11;;;;;;;12.85;2.90;;;17.60;61.20;;;;;;5055300;28;20274;-55
2023/11/13 05:30:38;;;;;;;11.13;2.78;;;17.60;61.20;;;;;;5055451;28;20261;-56
2023/11/13 05:33:06;;;;;;;11.38;2.85;;;17.60;61.20;;;;;;5054598;28;20184;-59
2023/11/13 05:35:33;;;;;;;12.48;3.03;;;17.60;61.20;;;;;;5055003;28;20720;-58
2023/11/13 05:38:00;;;;;;;9.55;3.20;;;17.60;61.10;;;;;;5055108;28;20195;-57
2023/11/13 05:40:27;;;;;;;9.13;2.65;;;17.60;61.00;;;;;;5054740;28;20298;-58
2023/11/13 05:42:55;;;;;;;9.50;3.20;;;17.60;60.90;;;;;;5055000;28;20278;-59
2023/11/13 05:45:22;;;;;;;10.15;2.83;;;17.70;60.90;;;;;;5055176;28;20315;-55
2023/11/13 05:47:49;;;;;;;12.05;3.33;;;17.70;61.10;;;;;;5054488;28;20195;-53
2023/11/13 05:50:17;;;;;;;10.38;2.78;;;17.70;61.10;;;;;;5055014;28;20648;-56
2023/11/13 05:52:44;;;;;;;7.95;2.75;;;17.80;61.40;;;;;;5054884;28;20230;-60
2023/11/13 05:55:11;;;;;;;9.52;2.70;;;17.80;61.30;;;;;;5054461;28;20588;-56
2023/11/13 05:57:38;;;;;;;9.63;3.00;;;17.90;61.40;;;;;;5054393;28;20684;-58
2023/11/13 06:00:06;;;;;;;9.32;2.67;;;17.90;61.20;;;;;;5054509;28;20576;-54
2023/11/13 06:02:33;;;;;;;11.45;2.80;;;17.90;61.20;;;;;;5054274;28;20215;-56
2023/11/13 06:05:00;;;;;;;8.05;2.40;;;18.00;61.20;;;;;;5054352;28;20238;-54
2023/11/13 06:07:28;;;;;;;7.05;2.42;;;18.00;61.10;;;;;;5054392;28;20540;-55
2023/11/13 06:09:55;;;;;;;7.15;2.60;;;18.10;61.20;;;;;;5054229;28;20269;-56
2023/11/13 06:12:23;;;;;;;9.68;2.50;;;18.10;61.10;;;;;;5054446;28;20211;-57
2023/11/13 06:14:50;;;;;;;7.57;2.03;;;18.10;61.10;;;;;;5054464;28;20215;-58
2023/11/13 06:17:23;;;;;;;10.02;2.83;;;18.20;61.20;;;;;;5053675;28;20274;-54
2023/11/13 06:19:52;;;;;;;7.97;2.50;;;18.10;61.00;;;;;;5053931;28;20705;-55
2023/11/13 06:22:18;;;;;;;8.68;2.60;;;18.20;61.10;;;;;;5053760;28;20306;-55
2023/11/13 06:24:47;;;;;;;8.00;2.35;;;18.20;61.00;;;;;;5053983;28;20237;-54
2023/11/13 06:27:14;;;;;;;6.88;2.47;;;18.20;60.90;;;;;;5054143;28;20188;-55
2023/11/13 06:29:41;;;;;;;7.53;2.22;;;18.30;61.10;;;;;;5053852;28;20302;-56
2023/11/13 06:32:08;;;;;;;8.95;2.58;;;18.30;61.00;;;;;;5053801;28;20187;-57
2023/11/13 06:34:35;;;;;;;9.32;3.08;;;18.30;61.00;;;;;;5054123;28;20192;-58
2023/11/13 06:37:02;;;;;;;7.75;2.30;;;18.30;61.00;;;;;;5054022;28;20192;-57
2023/11/13 06:39:28;;;;;;;7.95;2.20;;;18.40;61.00;;;;;;5053654;28;20200;-58
2023/11/13 06:41:57;;;;;;;9.70;2.97;;;18.40;61.10;;;;;;5053578;28;20584;-55
2023/11/13 06:44:23;;;;;;;8.50;2.40;;;18.30;60.90;;;;;;5053825;28;20198;-56
2023/11/13 06:46:50;;;;;;;12.48;2.70;;;18.40;61.00;;;;;;5053154;28;20732;-58
2023/11/13 06:49:19;;;;;;;9.98;2.65;;;18.40;61.00;;;;;;5053852;28;20282;-54
2023/11/13 06:51:46;;;;;;;10.18;2.90;;;18.40;61.00;;;;;;5053456;28;20183;-56
2023/11/13 06:54:13;;;;;;;8.93;2.40;;;18.40;61.00;;;;;;5053402;28;20275;-57
2023/11/13 06:56:40;;;;;;;7.28;2.40;;;18.40;60.90;;;;;;5053328;28;20697;-59
2023/11/13 06:59:10;;;;;;;10.77;2.60;;;18.40;61.00;;;;;;5053276;28;20187;-56
2023/11/13 07:01:41;;;;;;;8.00;2.85;;;18.50;61.00;;;;;;5053113;28;20227;-57
2023/11/13 07:04:09;;;;;;;9.20;2.55;;;18.50;61.00;;;;;;5053169;28;20230;-56
2023/11/13 07:06:37;;;;;;;7.55;2.35;;;18.50;61.00;;;;;;5053588;28;20212;-53
2023/11/13 07:09:10;;;;;;;10.65;2.55;;;18.50;61.00;;;;;;5053047;28;20194;-52
2023/11/13 07:11:38;;;;;;;8.40;2.58;;;18.50;61.00;;;;;;5053146;28;20763;-57
2023/11/13 07:14:06;;;;;;;8.85;2.60;;;18.50;60.90;;;;;;5053335;28;20184;-56
2023/11/13 07:16:35;;;;;;;7.43;2.50;;;18.50;61.00;;;;;;5053027;28;20216;-56
2023/11/13 07:19:03;;;;;;;8.05;2.55;;;18.50;60.90;;;;;;5053103;28;20569;-58
2023/11/13 07:21:30;;;;;;;9.48;2.72;;;18.50;60.90;;;;;;5053542;28;20268;-56
2023/11/13 07:23:58;;;;;;;8.10;2.50;;;18.50;60.90;;;;;;5052827;28;20187;-55
2023/11/13 07:26:24;;;;;;;7.93;2.60;;;18.50;61.70;;;;;;5053185;28;20215;-56
2023/11/13 07:28:51;;;;;;;10.18;2.65;;;18.60;61.00;;;;;;5053023;28;20188;-54
2023/11/13 07:31:19;;;;;;;8.25;2.72;;;18.60;61.00;;;;;;5052739;28;20302;-58
2023/11/13 07:33:47;;;;;;;7.07;2.45;;;18.50;60.90;;;;;;5052142;28;20183;-55
2023/11/13 07:36:14;;;;;;;7.50;2.60;;;18.60;61.00;;;;;;5052613;28;20306;-56
2023/11/13 07:38:43;;;;;;;10.75;2.47;;;18.60;61.00;;;;;;5052183;28;20654;-56
2023/11/13 07:41:12;;;;;;;6.95;2.50;;;18.60;61.80;;;;;;5052867;28;20224;-57
2023/11/13 07:43:40;;;;;;;6.05;2.20;;;18.60;61.10;;;;;;5052823;28;20192;-56
2023/11/13 07:46:08;;;;;;;6.88;2.28;;;18.60;61.10;;;;;;5052209;28;20220;-55
2023/11/13 07:48:35;;;;;;;9.85;2.22;;;18.60;61.10;;;;;;5052691;28;20187;-57
2023/11/13 07:51:04;;;;;;;8.60;2.75;;;18.60;61.10;;;;;;5052823;28;20215;-55
2023/11/13 07:53:32;;;;;;;9.55;2.45;;;18.60;61.90;;;;;;5052283;28;20211;-55
2023/11/13 07:55:59;;;;;;;6.75;2.40;;;18.60;61.10;;;;;;5052671;28;20234;-56
2023/11/13 07:58:27;;;;;;;6.72;2.58;;;18.60;61.20;;;;;;5052136;28;20194;-53
2023/11/13 08:00:54;;;;;;;8.77;2.58;;;18.60;61.30;;;;;;5052362;28;20227;-56
2023/11/13 08:03:21;;;;;;;9.43;2.80;;;18.60;61.20;;;;;;5052227;28;20671;-59
2023/11/13 08:05:48;;;;;;;7.20;2.30;;;18.60;61.20;;;;;;5052265;28;20215;-58
2023/11/13 08:08:17;;;;;;;10.30;3.03;;;18.60;61.30;;;;;;5052035;28;20278;-57
2023/11/13 08:10:46;;;;;;;7.60;2.33;;;18.70;61.40;;;;;;5052483;28;20211;-57
2023/11/13 08:13:13;;;;;;;6.80;2.40;;;18.60;61.50;;;;;;5052059;28;20233;-57
2023/11/13 08:15:42;;;;;;;7.50;2.22;;;18.60;61.40;;;;;;5052079;28;20329;-56
2023/11/13 08:18:13;;;;;;;7.78;2.20;;;18.70;61.50;;;;;;5051922;28;20723;-56
2023/11/13 08:20:42;;;;;;;5.90;2.22;;;18.70;61.50;;;;;;5052551;28;20223;-55
2023/11/13 08:23:11;;;;;;;7.18;2.00;;;18.70;61.50;;;;;;5051557;28;20223;-54
2023/11/13 08:25:39;;;;;;;6.40;2.13;;;18.70;61.40;;;;;;5052305;28;20223;-59
2023/11/13 08:28:08;;;;;;;7.40;2.03;;;18.70;61.50;;;;;;5052306;28;20198;-57
2023/11/13 08:30:36;;;;;;;7.10;2.25;;;18.70;61.40;;;;;;5051933;28;20219;-54
2023/11/13 08:33:03;;;;;;;6.57;2.20;;;18.70;61.50;;;;;;5052198;28;20279;-58
2023/11/13 08:35:31;;;;;;;6.72;1.98;;;18.70;61.40;;;;;;5052207;28;20306;-56
2023/11/13 08:37:59;;;;;;;7.47;2.38;;;18.70;61.50;;;;;;5051767;28;20199;-60
2023/11/13 08:40:29;;;;;;;6.45;2.30;;;18.70;61.40;;;;;;5052169;28;20241;-53
2023/11/13 08:42:58;;;;;;;5.35;1.90;;;18.70;61.50;;;;;;5051968;28;20215;-57
2023/11/13 08:45:25;;;;;;;4.32;1.90;;;18.70;61.40;;;;;;5055117;28;20302;-58
2023/11/13 08:47:53;;;;;;;5.25;2.20;;;18.70;61.40;;;;;;5056087;28;20569;-54
2023/11/13 08:50:21;;;;;;;7.82;1.75;;;18.70;61.40;;;;;;5055813;28;20643;-58
2023/11/13 08:52:49;;;;;;;6.78;1.75;;;18.70;61.40;;;;;;5055661;28;20191;-55
2023/11/13 08:55:18;;;;;;;9.43;1.95;;;18.70;61.40;;;;;;5055616;28;20593;-58
2023/11/13 08:57:45;;;;;;;6.97;1.90;;;18.70;61.40;;;;;;5055532;28;20187;-58
2023/11/13 09:00:20;;;;;;;6.13;2.00;;;18.70;61.40;;;;;;5055230;28;20631;-60
2023/11/13 09:02:48;;;;;;;5.18;2.08;;;18.70;61.50;;;;;;5055812;28;20305;-57
2023/11/13 09:05:15;;;;;;;5.45;2.22;;;18.70;61.40;;;;;;5055453;28;20238;-57
2023/11/13 09:07:43;;;;;;;6.63;2.00;;;18.70;62.30;;;;;;5055129;28;20661;-59
2023/11/13 09:10:11;;;;;;;8.15;2.35;;;18.70;61.50;;;;;;5055582;28;20261;-58
2023/11/13 09:12:41;;;;;;;8.90;2.20;;;18.70;61.50;;;;;;5055645;28;20200;-57
2023/11/13 09:15:14;;;;;;;5.55;1.90;;;18.70;61.50;;;;;;5054947;28;20215;-60
2023/11/13 09:17:45;;;;;;;5.53;2.08;;;18.80;61.50;;;;;;5055518;28;20245;-58
2023/11/13 09:20:15;;;;;;;8.07;2.60;;;18.80;61.60;;;;;;5055186;28;20701;-60
2023/11/13 09:22:42;;;;;;;5.60;1.60;;;18.80;61.60;;;;;;5055050;28;20219;-58
2023/11/13 09:25:13;;;;;;;4.88;1.58;;;18.80;61.50;;;;;;5055471;28;20315;-57
2023/11/13 09:27:42;;;;;;;3.78;1.60;;;18.80;61.40;;;;;;5055394;28;20198;-60
2023/11/13 09:30:10;;;;;;;6.15;1.70;;;18.90;61.50;;;;;;5054898;28;20223;-57
2023/11/13 09:32:39;;;;;;;6.90;2.03;;;18.90;61.50;;;;;;5055451;28;20554;-58
2023/11/13 09:35:17;;;;;;;6.05;1.83;;;18.90;61.40;;;;;;5055367;28;20266;-60
2023/11/13 09:37:45;;;;;;;6.15;1.90;;;18.80;61.30;;;;;;5055146;28;20197;-58
2023/11/13 09:40:15;;;;;;;5.53;1.75;;;18.90;61.50;;;;;;5055168;28;20310;-59
2023/11/13 09:42:46;;;;;;;6.47;1.85;;;18.80;62.20;;;;;;5054933;28;20219;-57
2023/11/13 09:45:15;;;;;;;7.60;1.98;;;18.90;61.50;;;;;;5054982;28;20222;-62
2023/11/13 09:47:45;;;;;;;6.40;1.85;;;18.80;61.40;;;;;;5055167;28;20195;-57
2023/11/13 09:50:17;;;;;;;6.03;1.85;;;18.90;61.60;;;;;;5054308;28;20589;-58
2023/11/13 09:52:48;;;;;;;6.63;1.88;;;18.80;61.50;;;;;;5055101;28;20191;-60
2023/11/13 09:55:18;;;;;;;4.38;1.60;;;18.80;61.60;;;;;;5053707;28;20216;-59
2023/11/13 09:57:46;;;;;;;10.13;1.95;;;18.80;61.70;;;;;;5054379;28;20278;-60
2023/11/13 10:00:17;;;;;;;7.00;2.08;;;18.80;61.70;;;;;;5054476;28;20219;-58
2023/11/13 10:02:46;;;;;;;6.88;1.85;;;18.80;61.60;;;;;;5054646;28;20220;-56
2023/11/13 10:05:16;;;;;;;10.35;1.83;;;18.90;61.80;;;;;;5054196;28;20242;-57
2023/11/13 10:07:47;;;;;;;7.70;2.03;;;18.80;61.70;;;;;;5054441;28;20208;-59
2023/11/13 10:10:20;;;;;;;5.05;1.73;;;18.90;61.90;;;;;;5054289;28;20215;-58
2023/11/13 10:12:48;;;;;;;7.13;2.33;;;18.80;61.80;;;;;;5054333;28;20215;-58
2023/11/13 10:15:14;;;;;;;7.30;1.80;;;18.90;61.90;;;;;;5054497;28;20298;-58
2023/11/13 10:17:46;;;;;;;7.20;1.88;;;18.90;61.90;;;;;;5054111;28;20663;-60
2023/11/13 10:20:17;;;;;;;5.65;1.92;;;18.90;61.90;;;;;;5053983;28;20223;-57
2023/11/13 10:22:44;;;;;;;8.35;2.17;;;18.90;61.90;;;;;;5054270;28;20215;-60
2023/11/13 10:25:11;;;;;;;9.63;2.25;;;18.90;61.90;;;;;;5054042;28;20764;-59
2023/11/13 10:27:46;;;;;;;8.52;2.20;;;18.90;61.90;;;;;;5054012;28;20195;-61
2023/11/13 10:30:13;;;;;;;6.03;2.10;;;18.90;61.90;;;;;;5054351;28;20230;-61
2023/11/13 10:32:40;;;;;;;7.53;2.00;;;18.90;61.90;;;;;;5054195;28;20192;-58
2023/11/13 10:35:09;;;;;;;10.02;2.10;;;18.90;62.10;;;;;;5053854;28;20219;-58
2023/11/13 10:37:38;;;;;;;8.32;2.55;;;18.90;62.30;;;;;;5054012;28;20199;-60
2023/11/13 10:40:15;;;;;;;7.45;2.03;;;18.80;62.60;;;;;;5053970;28;20302;-60
2023/11/13 10:42:50;;;;;;;11.27;2.67;;;18.80;62.80;;;;;;5053539;28;20242;-60
2023/11/13 10:45:17;;;;;;;12.35;2.85;;;18.80;63.50;;;;;;5054068;28;20222;-60
2023/11/13 10:47:49;;;;;;;13.52;3.15;;;18.80;63.70;;;;;;5053796;28;20290;-61
2023/11/13 10:50:19;;;;;;;11.35;3.22;;;18.90;64.40;;;;;;5053550;28;20215;-58
2023/11/13 10:52:54;;;;;;;15.85;3.42;;;18.90;64.80;;;;;;5053742;28;20188;-57
2023/11/13 10:55:22;;;;;;;8.27;2.83;;;18.90;64.80;;;;;;5053651;28;20298;-58
2023/11/13 10:57:49;;;;;;;14.10;3.20;;;18.90;64.80;;;;;;5053323;28;20191;-58
2023/11/13 11:00:17;;;;;;;14.80;3.72;;;18.90;65.40;;;;;;5053635;28;20216;-59
2023/11/13 11:02:46;;;;;;;16.67;3.67;;;18.90;65.60;;;;;;5053234;28;20257;-58
2023/11/13 11:05:23;;;;;;;18.38;3.45;;;19.00;65.90;;;;;;5053085;28;20305;-58
2023/11/13 11:07:53;;;;;;;10.90;2.97;;;18.90;66.20;;;;;;5052978;28;20649;-58
2023/11/13 11:10:24;;;;;;;10.50;3.05;;;19.00;66.40;;;;;;5053444;28;20303;-58
2023/11/13 11:13:00;;;;;;;13.00;3.33;;;19.00;66.30;;;;;;5053022;28;20196;-59
2023/11/13 11:15:43;;;;;;;17.45;3.17;;;19.00;66.30;;;;;;5053382;28;20223;-58
2023/11/13 11:18:18;;;;;;;20.42;4.15;;;19.00;66.40;;;;;;5052958;28;20635;-57
2023/11/13 11:20:53;;;;;;;17.15;3.35;;;19.00;66.30;;;;;;5052935;28;20569;-58
2023/11/13 11:23:28;;;;;;;23.23;4.32;;;19.00;66.20;;;;;;5053128;28;20595;-57
2023/11/13 11:25:56;;;;;;;14.07;4.00;;;19.00;66.30;;;;;;5052912;28;20298;-58
2023/11/13 11:28:41;;;;;;;20.83;4.75;;;19.00;66.00;;;;;;5052397;28;20720;-58
2023/11/13 11:31:48;;;;;;;17.10;3.95;;;19.00;66.10;;;;;;5053067;28;20292;-57
2023/11/13 11:34:22;;;;;;;15.88;3.60;;;19.00;66.00;;;;;;5047616;28;20195;-58
2023/11/13 11:36:53;;;;;;;12.52;3.50;;;19.00;65.80;;;;;;5052907;28;20302;-59
2023/11/13 11:39:25;;;;;;;17.90;3.88;;;19.00;65.80;;;;;;5052889;28;20278;-59
2023/11/13 11:41:53;;;;;;;19.73;4.28;;;19.00;65.50;;;;;;5052536;28;20216;-58
2023/11/13 11:44:23;;;;;;;13.68;3.67;;;19.00;65.20;;;;;;5052707;28;20302;-58
2023/11/13 11:46:51;;;;;;;21.25;4.40;;;19.00;65.00;;;;;;5053127;28;20322;-58
2023/11/13 11:49:26;;;;;;;16.30;3.47;;;19.00;64.90;;;;;;5052487;28;20188;-58
2023/11/13 11:51:59;;;;;;;17.05;3.47;;;19.00;65.30;;;;;;5052852;28;20223;-58
2023/11/13 11:54:30;;;;;;;17.80;4.07;;;19.00;64.90;;;;;;5052692;28;20188;-58
2023/11/13 11:56:59;;;;;;;17.45;4.40;;;19.00;64.90;;;;;;5051737;28;20566;-58
2023/11/13 11:59:27;;;;;;;20.58;3.92;;;19.00;64.80;;;;;;5052581;28;20187;-57
2023/11/13 12:01:55;;;;;;;17.30;3.53;;;19.00;64.60;;;;;;5052350;28;20786;-58
2023/11/13 12:04:22;;;;;;;16.52;3.95;;;19.00;64.40;;;;;;5051896;28;20243;-57
2023/11/13 12:06:50;;;;;;;15.48;3.92;;;19.00;64.20;;;;;;5052582;28;20211;-58
2023/11/13 12:09:18;;;;;;;19.35;4.20;;;19.10;64.20;;;;;;5052108;28;20202;-58
2023/11/13 12:11:48;;;;;;;16.73;5.03;;;19.00;63.90;;;;;;5051824;28;20215;-58
2023/11/13 12:14:15;;;;;;;20.38;4.65;;;19.10;64.00;;;;;;5052060;28;20184;-58
2023/11/13 12:16:43;;;;;;;19.30;4.40;;;19.10;63.90;;;;;;5052501;28;20298;-59
2023/11/13 12:19:11;;;;;;;16.10;3.65;;;19.00;63.70;;;;;;5051446;28;20616;-58
2023/11/13 12:21:41;;;;;;;18.05;4.25;;;19.10;63.60;;;;;;5052460;28;20231;-58
2023/11/13 12:24:09;;;;;;;23.15;4.20;;;19.10;63.50;;;;;;5052203;28;20251;-58
2023/11/13 12:26:41;;;;;;;17.63;3.92;;;19.10;63.50;;;;;;5051916;28;20219;-58
2023/11/13 12:29:17;;;;;;;13.70;3.83;;;19.10;63.30;;;;;;5052188;28;20192;-58
2023/11/13 12:31:45;;;;;;;16.33;3.67;;;19.10;63.20;;;;;;5051932;28;20712;-58
2023/11/13 12:34:15;;;;;;;19.27;4.18;;;19.10;63.90;;;;;;5051564;28;20278;-58
2023/11/13 12:36:46;;;;;;;19.13;4.30;;;19.10;63.00;;;;;;5052265;28;20219;-57
2023/11/13 12:39:16;;;;;;;16.95;4.55;;;19.10;62.80;;;;;;5052158;28;20184;-58
2023/11/13 12:41:45;;;;;;;14.20;3.75;;;19.10;62.70;;;;;;5051818;28;20273;-57
2023/11/13 12:44:12;;;;;;;16.98;3.95;;;19.10;62.70;;;;;;5052006;28;20318;-58
2023/11/13 12:46:44;;;;;;;18.45;4.45;;;19.10;62.60;;;;;;5051964;28;20280;-58
2023/11/13 12:49:12;;;;;;;19.65;4.00;;;19.10;62.50;;;;;;5051670;28;20194;-58